Time;durP1;ratioP1;P1;durP2;ratioP2;P2;SDS_P1;SDS_P2;PMS_P1;PMS_P2;Temp;Humidity;BMP_temperature;BMP_pressure;BME280_temperature;BME280_humidity;BME280_pressure;Samples;Min_cycle;Max_cycle;Signal;HPM_P1;HPM_P2
2022/07/24 00:02:06;;;;;;;8.68;4.03;;;;;;;28.16;47.76;99900.25;5073483;28;20213;-76
2022/07/24 00:04:32;;;;;;;8.93;4.18;;;;;;;28.17;47.60;99896.63;5073078;28;20206;-76
2022/07/24 00:06:59;;;;;;;14.30;4.93;;;;;;;28.11;47.20;99897.00;5073065;28;20201;-75
2022/07/24 00:09:26;;;;;;;10.32;4.75;;;;;;;28.21;47.10;99898.16;5073010;28;20195;-75
2022/07/24 00:11:53;;;;;;;23.35;4.28;;;;;;;28.21;47.34;99908.84;5073002;28;20206;-75
2022/07/24 00:14:20;;;;;;;8.40;4.13;;;;;;;28.17;47.16;99892.16;5073192;28;20213;-75
2022/07/24 00:16:46;;;;;;;10.38;4.05;;;;;;;28.20;47.09;99897.31;5038004;28;20210;-76
2022/07/24 00:19:15;;;;;;;12.30;4.45;;;;;;;27.79;47.00;99813.63;5053103;28;20199;-76
2022/07/24 00:21:42;;;;;;;9.00;4.25;;;;;;;28.16;47.05;99884.25;5035961;28;20203;-75
2022/07/24 00:24:09;;;;;;;12.70;5.03;;;;;;;28.02;47.24;99880.56;5073013;28;20230;-72
2022/07/24 00:26:36;;;;;;;8.90;4.60;;;;;;;28.01;47.04;99889.50;5027478;28;20695;-76
2022/07/24 00:29:03;;;;;;;13.35;4.90;;;;;;;28.08;47.23;99887.38;5064577;28;20194;-74
2022/07/24 00:31:30;;;;;;;9.10;4.40;;;;;;;28.01;47.06;99878.84;5053998;28;20210;-74
2022/07/24 00:33:56;;;;;;;8.20;4.18;;;;;;;27.91;47.40;99880.34;5072334;28;21794;-75
2022/07/24 00:36:25;;;;;;;8.85;4.25;;;;;;;27.95;47.66;99889.03;5072900;28;20197;-75
2022/07/24 00:38:52;;;;;;;15.13;4.53;;;;;;;27.84;47.19;99868.34;5034588;28;20257;-75
2022/07/24 00:41:18;;;;;;;9.68;4.78;;;;;;;27.88;47.51;99883.22;5072199;28;20587;-76
2022/07/24 00:44:02;;;;;;;6.72;4.22;;;;;;;27.73;47.50;99859.25;5072642;28;20206;-75
2022/07/24 00:46:29;;;;;;;15.50;4.57;;;;;;;27.91;47.50;99875.03;5072749;28;20209;-75
2022/07/24 00:48:56;;;;;;;8.73;4.22;;;;;;;27.77;47.68;99869.66;5072224;28;20194;-75
2022/07/24 00:51:25;;;;;;;9.45;4.53;;;;;;;27.89;47.42;99871.59;5072285;28;20226;-74
2022/07/24 00:53:52;;;;;;;9.88;4.28;;;;;;;27.79;47.47;99870.41;5072178;28;20201;-75
2022/07/24 00:56:19;;;;;;;19.73;5.20;;;;;;;27.64;47.30;99847.34;5072124;28;20204;-75
2022/07/24 00:58:47;;;;;;;6.60;4.10;;;;;;;27.89;47.01;99863.59;5072138;28;20564;-74
2022/07/24 01:01:14;;;;;;;6.30;4.50;;;;;;;27.78;47.19;99858.06;5072123;28;20275;-76
2022/07/24 01:03:41;;;;;;;10.18;4.10;;;;;;;27.41;46.69;99791.84;5072552;28;20206;-75
2022/07/24 01:08:51;;;;;;;12.15;4.28;;;;;;;27.72;47.04;99858.41;5008489;28;20204;-74
2022/07/24 01:14:01;;;;;;;6.82;4.30;;;;;;;27.68;46.86;99846.22;4919272;29;20204;-76
2022/07/24 01:16:27;;;;;;;7.00;4.05;;;;;;;27.81;46.92;99855.19;4882288;29;20199;-75
2022/07/24 01:18:54;;;;;;;4.25;3.85;;;;;;;27.75;46.97;99857.38;4913548;29;20600;-75
2022/07/24 01:21:23;;;;;;;8.90;3.65;;;;;;;27.74;46.85;99845.84;4914357;29;20703;-75
2022/07/24 01:23:49;;;;;;;12.40;4.80;;;;;;;27.74;46.75;99842.31;4919361;29;20230;-75
2022/07/24 01:26:16;;;;;;;5.72;3.83;;;;;;;27.78;46.68;99851.88;4932495;29;20262;-75
2022/07/24 01:28:43;;;;;;;8.27;4.32;;;;;;;27.80;47.12;99857.94;4926973;29;20215;-74
2022/07/24 01:31:10;;;;;;;6.72;4.32;;;;;;;27.63;47.23;99858.09;4932419;29;20223;-74
2022/07/24 01:33:37;;;;;;;8.57;4.40;;;;;;;27.63;47.18;99850.94;4963034;28;20198;-75
2022/07/24 01:36:04;;;;;;;7.95;4.50;;;;;;;27.64;47.46;99854.47;4986167;28;20205;-76
2022/07/24 01:38:32;;;;;;;6.35;4.10;;;;;;;27.65;47.43;99850.88;4982393;28;20193;-75
2022/07/24 01:40:59;;;;;;;9.93;4.72;;;;;;;27.46;47.75;99837.78;4988883;28;20220;-75
2022/07/24 01:43:26;;;;;;;6.85;4.63;;;;;;;27.41;48.12;99855.78;4974820;28;20208;-74
2022/07/24 01:45:53;;;;;;;8.15;4.35;;;;;;;27.39;48.65;99865.66;5052404;28;20572;-73
2022/07/24 01:48:20;;;;;;;8.98;4.32;;;;;;;27.40;48.09;99864.69;5035549;28;20201;-75
2022/07/24 01:50:46;;;;;;;7.82;4.53;;;;;;;27.38;48.02;99869.28;5071557;28;20222;-75
2022/07/24 01:53:13;;;;;;;9.40;4.18;;;;;;;27.38;48.38;99863.94;5071328;28;20199;-74
2022/07/24 01:55:41;;;;;;;7.10;3.88;;;;;;;27.17;49.23;99859.84;5071413;28;20666;-75
2022/07/24 01:58:08;;;;;;;5.53;3.97;;;;;;;27.12;49.09;99846.78;5071055;28;20201;-76
2022/07/24 02:00:35;;;;;;;5.97;4.15;;;;;;;27.21;49.02;99856.06;5070531;28;20199;-75
2022/07/24 02:03:02;;;;;;;7.05;4.30;;;;;;;26.80;50.02;99829.94;5070507;28;20210;-75
2022/07/24 02:05:29;;;;;;;9.50;4.05;;;;;;;27.03;49.32;99863.28;5070712;28;20205;-74
2022/07/24 02:07:59;;;;;;;7.53;4.03;;;;;;;27.02;50.87;99862.44;5071090;28;20235;-75
2022/07/24 02:10:26;;;;;;;9.50;4.32;;;;;;;26.97;50.99;99859.16;5070386;28;20236;-75
2022/07/24 02:12:55;;;;;;;7.45;4.40;;;;;;;26.95;51.53;99860.19;5070871;28;20202;-74
2022/07/24 02:15:23;;;;;;;4.78;4.07;;;;;;;26.84;51.89;99855.47;5070576;28;20558;-75
2022/07/24 02:17:51;;;;;;;6.95;4.53;;;;;;;26.82;58.68;99854.69;5070896;28;20732;-76
2022/07/24 02:20:18;;;;;;;5.03;4.53;;;;;;;26.42;59.22;99783.31;5070862;28;20199;-75
2022/07/24 02:22:45;;;;;;;6.03;4.03;;;;;;;26.67;55.55;99860.81;5071041;28;20237;-77
2022/07/24 02:25:13;;;;;;;5.72;3.92;;;;;;;26.60;53.98;99851.44;5071078;28;20219;-75
2022/07/24 02:27:40;;;;;;;7.28;5.05;;;;;;;26.63;53.46;99853.94;5070100;28;20202;-74
2022/07/24 02:30:12;;;;;;;8.38;3.83;;;;;;;26.71;54.60;99846.41;5070546;28;20558;-74
2022/07/24 02:32:39;;;;;;;10.15;4.57;;;;;;;26.66;54.56;99844.94;5069472;28;20199;-75
2022/07/24 02:35:06;;;;;;;6.10;3.83;;;;;;;26.68;58.94;99843.06;5070896;28;20206;-75
2022/07/24 02:37:33;;;;;;;5.07;4.15;;;;;;;26.66;61.72;99845.78;5070216;28;20203;-75
2022/07/24 02:40:00;;;;;;;8.80;4.57;;;;;;;26.62;56.48;99854.88;5069379;28;20195;-76
2022/07/24 02:42:27;;;;;;;5.80;4.07;;;;;;;26.68;55.68;99859.88;5032927;28;20195;-74
2022/07/24 02:44:54;;;;;;;5.68;4.28;;;;;;;26.55;57.49;99861.47;5054929;28;20191;-75
2022/07/24 02:47:22;;;;;;;5.78;4.63;;;;;;;26.52;56.62;99856.31;5070381;28;20198;-75
2022/07/24 02:49:49;;;;;;;7.72;4.38;;;;;;;26.79;53.45;99854.81;5070670;28;20198;-75
2022/07/24 02:52:15;;;;;;;6.63;3.83;;;;;;;26.64;53.52;99834.38;5070080;28;20222;-75
2022/07/24 02:54:42;;;;;;;4.72;4.28;;;;;;;26.48;54.15;99839.66;5069899;28;20202;-75
2022/07/24 02:57:09;;;;;;;8.10;4.47;;;;;;;26.55;53.80;99843.72;5070096;28;20202;-75
2022/07/24 02:59:36;;;;;;;6.47;4.32;;;;;;;26.49;53.30;99820.13;5070376;28;20217;-75
2022/07/24 03:02:03;;;;;;;6.93;4.50;;;;;;;26.61;53.50;99839.88;5028100;28;20206;-75
2022/07/24 03:04:31;;;;;;;5.13;3.90;;;;;;;26.71;53.41;99840.22;5050424;28;20574;-76
2022/07/24 03:06:58;;;;;;;10.70;4.05;;;;;;;26.68;56.31;99843.06;5061122;28;20199;-75
2022/07/24 03:09:25;;;;;;;5.32;4.38;;;;;;;26.50;58.41;99839.59;5069832;28;20207;-73
2022/07/24 03:11:52;;;;;;;9.20;5.15;;;;;;;26.23;56.84;99817.13;5069686;28;20222;-75
2022/07/24 03:14:19;;;;;;;7.05;4.20;;;;;;;26.47;55.63;99845.09;5051266;28;20191;-74
2022/07/24 03:16:45;;;;;;;7.55;4.32;;;;;;;26.54;55.25;99846.47;5069821;28;20666;-76
2022/07/24 03:19:12;;;;;;;4.32;3.92;;;;;;;26.46;55.43;99851.34;5069883;28;20614;-73
2022/07/24 03:21:40;;;;;;;11.40;5.00;;;;;;;26.53;59.07;99844.75;5070346;28;20221;-74
2022/07/24 03:24:07;;;;;;;11.00;5.80;;;;;;;26.40;71.54;99844.53;5070293;28;20235;-76
2022/07/24 03:26:34;;;;;;;11.13;4.90;;;;;;;25.96;80.92;99788.41;5069763;28;20209;-75
2022/07/24 03:29:01;;;;;;;11.57;4.90;;;;;;;26.43;82.05;99839.03;5070026;28;20564;-76
2022/07/24 03:31:28;;;;;;;15.23;5.43;;;;;;;26.48;88.86;99842.34;5069882;28;20738;-76
2022/07/24 03:33:54;;;;;;;9.40;5.35;;;;;;;26.48;95.45;99844.13;5069855;28;20210;-74
2022/07/24 03:36:21;;;;;;;8.75;5.30;;;;;;;26.63;98.73;99848.63;5069168;28;20211;-75
2022/07/24 03:38:49;;;;;;;7.60;5.60;;;;;;;26.70;98.30;99844.69;5035001;28;20199;-74
2022/07/24 03:41:16;;;;;;;9.30;5.13;;;;;;;26.73;98.67;99836.53;5069521;28;20194;-74
2022/07/24 03:43:43;;;;;;;18.40;5.97;;;;;;;26.88;96.38;99841.03;5069882;28;20581;-73
2022/07/24 03:46:10;;;;;;;10.18;5.00;;;;;;;27.08;91.45;99830.13;5069432;28;20202;-74
2022/07/24 03:48:37;;;;;;;10.05;5.32;;;;;;;27.38;87.62;99818.66;5068685;28;20198;-77
2022/07/24 03:51:04;;;;;;;16.77;5.40;;;;;;;27.95;84.57;99860.56;5069389;28;20233;-77
2022/07/24 03:53:30;;;;;;;9.00;4.95;;;;;;;28.19;78.79;99863.59;5073940;28;20213;-77
2022/07/24 03:55:59;;;;;;;14.48;5.50;;;;;;;28.82;74.17;99872.13;5073465;28;20681;-77
2022/07/24 03:58:26;;;;;;;6.47;4.93;;;;;;;29.26;69.23;99869.28;5026503;28;20721;-77
2022/07/24 04:00:52;;;;;;;12.38;5.20;;;;;;;29.71;64.72;99869.88;5072196;28;20201;-75
2022/07/24 04:03:19;;;;;;;11.82;5.13;;;;;;;30.22;62.41;99869.00;5072574;28;20332;-73
2022/07/24 04:05:46;;;;;;;11.25;4.85;;;;;;;30.76;58.48;99868.81;5072573;28;20206;-71
2022/07/24 04:08:13;;;;;;;6.18;4.78;;;;;;;31.19;55.81;99863.91;5036909;28;20203;-75
2022/07/24 04:10:40;;;;;;;12.55;5.30;;;;;;;31.55;54.34;99877.28;5072236;28;20213;-77
2022/07/24 04:13:08;;;;;;;7.75;5.22;;;;;;;31.78;53.92;99857.66;5072797;28;20213;-77
2022/07/24 04:15:35;;;;;;;13.20;5.15;;;;;;;32.60;51.69;99872.75;5073390;28;20198;-75
2022/07/24 04:18:01;;;;;;;10.95;5.38;;;;;;;32.93;49.61;99872.72;5072563;28;20240;-75
2022/07/24 04:20:28;;;;;;;10.50;4.72;;;;;;;32.74;49.10;99864.47;5072988;28;20198;-73
2022/07/24 04:22:55;;;;;;;12.27;5.55;;;;;;;33.23;49.21;99864.03;5073170;28;20226;-74
2022/07/24 04:25:22;;;;;;;8.38;5.05;;;;;;;33.44;47.06;99852.47;5053741;28;20565;-73
2022/07/24 04:27:49;;;;;;;10.40;4.70;;;;;;;33.47;46.61;99879.97;5073152;28;20225;-74
2022/07/24 04:30:17;;;;;;;9.50;4.80;;;;;;;33.77;47.24;99880.16;5071994;28;20685;-73
2022/07/24 04:32:44;;;;;;;9.93;5.15;;;;;;;34.21;44.97;99875.53;5072481;28;20222;-73
2022/07/24 04:35:11;;;;;;;8.65;5.10;;;;;;;34.60;44.01;99855.06;5072367;28;20208;-73
2022/07/24 04:37:38;;;;;;;14.32;5.28;;;;;;;34.97;43.20;99879.59;5072907;28;20206;-72
2022/07/24 04:40:06;;;;;;;10.82;4.90;;;;;;;34.77;43.21;99879.53;5072514;28;20205;-73
2022/07/24 04:42:32;;;;;;;6.88;4.90;;;;;;;35.05;42.99;99882.47;5072880;28;20213;-73
2022/07/24 04:44:59;;;;;;;13.63;5.50;;;;;;;34.92;42.85;99889.94;5071707;28;20665;-74
2022/07/24 04:47:27;;;;;;;14.43;5.35;;;;;;;35.06;42.54;99889.56;5072427;28;20206;-74
2022/07/24 04:49:54;;;;;;;12.95;5.47;;;;;;;35.37;41.73;99876.88;5072230;28;20210;-74
2022/07/24 04:52:21;;;;;;;16.35;6.43;;;;;;;35.82;41.51;99886.16;5072421;28;20230;-74
2022/07/24 04:54:48;;;;;;;14.15;6.60;;;;;;;36.19;40.95;99883.63;5033470;28;20195;-73
2022/07/24 04:57:15;;;;;;;11.80;5.55;;;;;;;36.22;40.64;99880.63;5052390;28;20210;-73
2022/07/24 04:59:42;;;;;;;15.15;5.75;;;;;;;35.88;40.35;99903.66;5052492;28;20199;-73
2022/07/24 05:02:08;;;;;;;15.10;5.60;;;;;;;35.58;40.65;99908.16;5071375;28;20198;-73
2022/07/24 05:04:37;;;;;;;13.50;7.03;;;;;;;35.11;41.92;99901.63;5071456;28;20202;-73
2022/07/24 05:07:04;;;;;;;14.00;7.15;;;;;;;35.35;41.95;99895.06;5072069;28;20209;-76
2022/07/24 05:09:31;;;;;;;16.80;6.82;;;;;;;35.89;40.93;99913.47;5071731;28;20202;-73
2022/07/24 05:11:58;;;;;;;11.75;6.70;;;;;;;35.64;41.77;99902.22;5052093;28;20703;-74
2022/07/24 05:14:25;;;;;;;19.30;6.57;;;;;;;35.85;40.98;99895.84;5052110;28;20214;-74
2022/07/24 05:16:51;;;;;;;14.95;6.07;;;;;;;35.82;41.57;99904.25;5053088;28;20199;-72
2022/07/24 05:19:18;;;;;;;13.82;6.32;;;;;;;34.64;42.43;99916.63;5071505;28;20214;-72
2022/07/24 05:21:46;;;;;;;13.52;5.30;;;;;;;34.74;43.06;99906.75;5053352;28;20206;-72
2022/07/24 05:24:13;;;;;;;12.73;6.25;;;;;;;34.77;42.79;99886.78;5071519;28;20244;-73
2022/07/24 05:26:40;;;;;;;16.20;6.05;;;;;;;35.29;41.57;99897.31;5072062;28;20662;-73
2022/07/24 05:29:07;;;;;;;14.48;5.72;;;;;;;35.68;41.44;99894.69;5072022;28;20213;-73
2022/07/24 05:31:34;;;;;;;16.92;6.32;;;;;;;35.82;40.52;99879.94;5032706;28;20238;-73
2022/07/24 05:34:01;;;;;;;14.57;8.02;;;;;;;35.83;40.76;99873.53;5051838;28;20195;-73
2022/07/24 05:36:29;;;;;;;24.58;9.30;;;;;;;36.08;41.00;99873.81;5061016;28;20198;-73
2022/07/24 05:38:58;;;;;;;23.13;9.00;;;;;;;36.31;40.34;99882.47;5071009;28;20197;-73
2022/07/24 05:41:24;;;;;;;19.95;8.02;;;;;;;36.07;40.68;99871.22;5071708;28;20201;-72
2022/07/24 05:43:51;;;;;;;12.65;8.20;;;;;;;35.72;41.83;99855.66;5071372;28;20205;-72
2022/07/24 05:46:18;;;;;;;18.70;8.18;;;;;;;35.83;41.38;99857.34;5071515;28;20191;-73
2022/07/24 05:48:45;;;;;;;21.27;11.05;;;;;;;36.10;41.43;99874.53;5038092;28;20197;-72
2022/07/24 05:51:12;;;;;;;19.70;9.70;;;;;;;34.97;43.92;99853.50;5069656;28;20202;-72
2022/07/24 05:53:39;;;;;;;25.38;8.75;;;;;;;33.57;49.10;99859.41;5070886;28;20574;-71
2022/07/24 05:56:07;;;;;;;22.33;8.65;;;;;;;32.94;53.63;99876.28;5070759;28;20198;-72
2022/07/24 05:58:34;;;;;;;27.95;8.55;;;;;;;32.56;55.80;99876.63;5071091;28;20199;-72
2022/07/24 06:01:01;;;;;;;15.50;7.90;;;;;;;32.71;57.33;99886.16;5071579;28;20198;-72
2022/07/24 06:03:28;;;;;;;31.02;11.30;;;;;;;33.01;56.04;99884.69;5070806;28;20214;-73
2022/07/24 06:05:55;;;;;;;37.25;19.17;;;;;;;33.47;54.13;99879.97;5071277;28;20202;-74
2022/07/24 06:08:21;;;;;;;29.05;10.38;;;;;;;33.51;53.05;99884.13;5071219;28;20209;-73
2022/07/24 06:10:51;;;;;;;23.00;10.07;;;;;;;33.83;50.20;99879.63;5070320;28;20213;-74
2022/07/24 06:13:19;;;;;;;27.80;10.18;;;;;;;33.80;51.53;99882.56;5070776;28;20225;-75
2022/07/24 06:15:46;;;;;;;19.35;9.43;;;;;;;33.73;50.88;99872.44;5071099;28;20198;-75
2022/07/24 06:18:13;;;;;;;21.40;9.68;;;;;;;33.53;51.39;99820.31;5070429;28;20650;-74
2022/07/24 06:20:40;;;;;;;24.60;9.75;;;;;;;33.86;51.88;99870.41;5070729;28;20198;-74
2022/07/24 06:23:07;;;;;;;23.52;9.02;;;;;;;33.76;51.05;99866.81;5070453;28;20556;-75
2022/07/24 06:25:34;;;;;;;25.30;10.38;;;;;;;33.26;53.05;99865.63;5066956;28;20616;-73
2022/07/24 06:28:00;;;;;;;23.98;9.15;;;;;;;33.33;52.71;99856.91;5066580;28;20206;-76
2022/07/24 06:30:30;;;;;;;19.85;9.05;;;;;;;33.10;54.91;99832.91;5066337;28;20206;-74
2022/07/24 06:32:58;;;;;;;22.30;9.27;;;;;;;32.74;56.13;99826.84;5062919;28;20222;-76
2022/07/24 06:35:25;;;;;;;23.45;9.52;;;;;;;32.83;56.40;99834.16;5055162;28;20205;-77
2022/07/24 06:37:52;;;;;;;20.98;9.60;;;;;;;31.87;59.44;99840.84;5058315;28;20206;-74
2022/07/24 06:40:20;;;;;;;27.02;9.27;;;;;;;31.62;61.76;99843.69;5056915;28;20210;-72
2022/07/24 06:42:49;;;;;;;36.03;9.55;;;;;;;31.33;62.44;99855.69;5062645;28;20218;-73
2022/07/24 06:45:16;;;;;;;19.00;7.53;;;;;;;30.74;69.04;99858.22;5060820;28;20210;-74
2022/07/24 06:47:45;;;;;;;26.42;9.35;;;;;;;31.09;69.07;99847.66;5065772;28;20198;-74
2022/07/24 06:50:13;;;;;;;21.38;8.40;;;;;;;31.27;71.18;99840.09;5063224;28;20209;-73
2022/07/24 06:52:40;;;;;;;63.15;30.92;;;;;;;31.54;66.68;99856.81;5057465;28;20248;-75
2022/07/24 06:55:08;;;;;;;20.85;9.40;;;;;;;31.36;63.45;99821.47;5058446;28;20191;-75
2022/07/24 06:57:35;;;;;;;22.80;9.63;;;;;;;31.10;67.27;99827.94;5051892;28;20301;-74
2022/07/24 07:00:02;;;;;;;19.52;9.18;;;;;;;31.24;70.31;99851.91;5046591;28;20209;-72
2022/07/24 07:02:29;;;;;;;21.83;8.45;;;;;;;31.51;67.04;99846.28;5046680;28;20221;-73
2022/07/24 07:04:57;;;;;;;22.00;8.50;;;;;;;31.01;68.16;99825.06;5046297;28;20207;-73
2022/07/24 07:07:24;;;;;;;29.10;8.75;;;;;;;31.08;69.94;99796.84;5048835;28;20211;-75
2022/07/24 07:09:51;;;;;;;16.45;7.45;;;;;;;31.64;60.66;99852.50;5066527;28;20713;-76
2022/07/24 07:12:18;;;;;;;24.73;8.07;;;;;;;31.94;62.31;99841.22;5066485;28;20221;-78
2022/07/24 07:14:44;;;;;;;15.63;7.72;;;;;;;32.09;58.69;99844.59;5066850;28;20202;-72
2022/07/24 07:17:11;;;;;;;16.05;7.43;;;;;;;32.26;54.43;99846.81;5059933;28;20206;-76
2022/07/24 07:19:38;;;;;;;17.10;6.88;;;;;;;32.16;53.75;99852.06;5054111;28;20207;-76
2022/07/24 07:22:06;;;;;;;11.60;6.72;;;;;;;32.30;50.93;99832.19;5057380;28;20209;-75
2022/07/24 07:24:33;;;;;;;20.13;7.97;;;;;;;32.53;49.17;99833.91;5059892;28;20225;-75
2022/07/24 07:27:00;;;;;;;11.93;7.57;;;;;;;32.82;50.46;99836.97;5055718;28;20745;-74
2022/07/24 07:29:27;;;;;;;16.45;7.28;;;;;;;32.92;47.40;99830.75;5065750;28;20202;-74
2022/07/24 07:31:54;;;;;;;47.28;26.73;;;;;;;33.20;48.61;99825.81;5060222;28;20241;-73
2022/07/24 07:34:21;;;;;;;8.80;6.30;;;;;;;33.58;47.57;99827.97;5068782;28;20963;-77
2022/07/24 07:36:47;;;;;;;8.32;6.10;;;;;;;33.94;45.03;99837.47;5058726;28;20203;-74
2022/07/24 07:39:16;;;;;;;14.80;6.43;;;;;;;34.03;44.33;99836.72;5068555;28;20210;-73
2022/07/24 07:41:42;;;;;;;12.70;6.55;;;;;;;34.25;44.77;99837.44;5067014;28;20210;-74
2022/07/24 07:44:09;;;;;;;15.95;6.65;;;;;;;34.47;44.80;99836.41;5069805;28;20225;-75
2022/07/24 07:46:36;;;;;;;11.15;6.35;;;;;;;34.50;43.28;99821.84;5069238;28;20712;-75
2022/07/24 07:49:03;;;;;;;10.50;6.00;;;;;;;34.35;41.38;99813.28;5031683;28;20206;-74
2022/07/24 07:51:30;;;;;;;10.60;5.35;;;;;;;34.40;41.37;99843.31;5050367;28;20203;-74
2022/07/24 07:53:57;;;;;;;9.88;5.88;;;;;;;34.50;40.90;99827.22;5067418;28;20226;-75
2022/07/24 07:56:25;;;;;;;9.82;5.47;;;;;;;34.71;40.63;99845.03;5069662;28;20198;-74
2022/07/24 07:58:52;;;;;;;11.38;5.68;;;;;;;34.54;39.92;99829.50;5069245;28;20572;-75
2022/07/24 08:01:19;;;;;;;16.90;6.03;;;;;;;34.46;39.67;99823.91;5069681;28;20289;-74
2022/07/24 08:03:46;;;;;;;10.23;5.38;;;;;;;34.51;39.73;99845.06;5069784;28;20674;-74
2022/07/24 08:06:13;;;;;;;9.27;5.57;;;;;;;34.34;38.49;99838.47;5069515;28;20736;-74
2022/07/24 08:08:40;;;;;;;13.15;5.75;;;;;;;34.41;37.69;99834.25;5069614;28;20206;-74
2022/07/24 08:11:07;;;;;;;9.45;5.40;;;;;;;34.43;36.75;99848.44;5069943;28;20210;-74
2022/07/24 08:13:35;;;;;;;9.07;5.53;;;;;;;34.28;36.58;99849.78;5069213;28;20221;-74
2022/07/24 08:16:02;;;;;;;9.90;5.40;;;;;;;34.33;36.86;99852.91;5069635;28;20293;-75
2022/07/24 08:18:29;;;;;;;11.05;5.07;;;;;;;34.43;36.95;99853.81;5069606;28;20202;-76
2022/07/24 08:20:56;;;;;;;11.55;5.53;;;;;;;34.38;36.78;99823.75;5049037;28;20202;-76
2022/07/24 08:23:23;;;;;;;7.95;5.80;;;;;;;34.76;36.41;99858.97;5064722;28;20242;-77
2022/07/24 08:25:49;;;;;;;8.98;5.90;;;;;;;34.78;37.24;99865.06;5068052;28;20228;-77
2022/07/24 08:28:17;;;;;;;14.73;5.50;;;;;;;34.63;37.27;99844.88;5069527;28;20198;-77
2022/07/24 08:30:45;;;;;;;10.13;5.35;;;;;;;34.65;36.26;99831.28;5066387;28;20206;-77
2022/07/24 08:33:12;;;;;;;10.43;5.50;;;;;;;34.73;36.12;99861.09;5060307;28;20237;-78
2022/07/24 08:35:38;;;;;;;13.18;5.05;;;;;;;34.74;35.79;99854.72;5063982;28;20209;-77
2022/07/24 08:38:06;;;;;;;10.93;5.50;;;;;;;34.82;35.65;99857.56;5066742;28;20207;-75
2022/07/24 08:40:35;;;;;;;12.88;6.05;;;;;;;34.76;36.20;99866.19;5068693;28;20202;-77
2022/07/24 08:43:02;;;;;;;9.13;5.55;;;;;;;34.80;35.62;99857.72;5067952;28;20260;-77
2022/07/24 08:45:33;;;;;;;9.07;4.95;;;;;;;34.83;35.42;99841.25;5068665;28;20202;-76
2022/07/24 08:48:03;;;;;;;9.68;6.05;;;;;;;34.92;35.43;99861.16;5032550;28;21009;-76
2022/07/24 08:50:31;;;;;;;9.57;5.63;;;;;;;34.85;35.76;99860.84;5068706;28;20190;-77
2022/07/24 08:53:00;;;;;;;7.13;5.68;;;;;;;34.81;35.77;99840.56;5068472;28;20218;-77
2022/07/24 08:55:27;;;;;;;12.05;5.53;;;;;;;34.89;35.88;99850.63;5068429;28;20216;-76
2022/07/24 08:57:56;;;;;;;10.05;5.60;;;;;;;35.10;36.20;99847.88;5049191;28;20211;-75
2022/07/24 09:00:23;;;;;;;7.82;5.38;;;;;;;35.00;35.59;99857.75;5066230;28;20213;-76
2022/07/24 09:02:50;;;;;;;14.95;5.85;;;;;;;35.11;35.77;99841.47;5066355;28;20194;-75
2022/07/24 09:05:18;;;;;;;10.45;6.07;;;;;;;35.19;35.71;99836.28;5066315;28;20209;-77
2022/07/24 09:07:45;;;;;;;13.15;5.80;;;;;;;35.18;34.97;99827.31;5066374;28;20202;-75
2022/07/24 09:10:14;;;;;;;16.60;7.63;;;;;;;35.36;35.24;99842.81;5063649;28;20230;-76
2022/07/24 09:12:44;;;;;;;13.52;6.20;;;;;;;35.40;35.46;99826.22;5064876;28;20236;-72
2022/07/24 09:15:16;;;;;;;13.10;7.07;;;;;;;35.16;37.82;99833.88;5067348;28;20209;-74
2022/07/24 09:17:52;;;;;;;9.65;6.20;;;;;;;34.98;39.49;99819.31;5067424;28;20213;-74
2022/07/24 09:20:20;;;;;;;16.08;6.72;;;;;;;34.92;40.19;99833.34;5066132;28;20681;-77
2022/07/24 09:22:47;;;;;;;12.23;6.35;;;;;;;34.88;40.22;99827.38;5067205;28;20226;-77
2022/07/24 09:25:16;;;;;;;12.15;6.45;;;;;;;35.01;39.66;99821.72;5066395;28;20198;-77
2022/07/24 09:27:48;;;;;;;11.43;6.05;;;;;;;34.93;38.45;99810.78;5061170;28;20206;-74
2022/07/24 09:30:27;;;;;;;13.07;5.95;;;;;;;35.15;38.72;99822.22;5053426;28;20210;-73
2022/07/24 09:32:55;;;;;;;8.73;5.38;;;;;;;35.19;38.17;99814.69;5061215;28;20221;-72
2022/07/24 09:35:31;;;;;;;11.15;5.75;;;;;;;35.29;36.07;99835.28;5066527;28;20206;-74
2022/07/24 09:37:59;;;;;;;10.00;5.80;;;;;;;35.22;36.10;99827.91;5059456;28;20212;-74
2022/07/24 09:40:30;;;;;;;9.65;5.75;;;;;;;35.40;36.63;99839.69;5068143;28;20237;-73
2022/07/24 09:43:12;;;;;;;8.45;5.20;;;;;;;35.33;36.46;99838.56;5067728;28;20670;-73
2022/07/24 09:46:00;;;;;;;7.15;5.50;;;;;;;35.47;36.70;99838.16;5055179;28;20206;-77
2022/07/24 09:48:29;;;;;;;17.75;6.13;;;;;;;35.51;36.81;99830.63;5062630;28;20201;-76
2022/07/24 09:50:59;;;;;;;16.25;6.20;;;;;;;35.29;36.67;99826.34;5016001;28;20203;-76
2022/07/24 09:53:27;;;;;;;18.23;6.70;;;;;;;35.21;37.11;99829.75;5064282;28;20225;-77
2022/07/24 09:56:02;;;;;;;11.77;6.25;;;;;;;35.47;36.54;99831.91;5054238;28;20606;-76
2022/07/24 09:58:30;;;;;;;10.48;5.70;;;;;;;35.30;36.64;99828.06;5044721;28;20209;-74
2022/07/24 10:01:00;;;;;;;18.00;5.90;;;;;;;35.38;36.76;99825.53;5028858;28;20937;-71
2022/07/24 10:03:30;;;;;;;15.02;6.43;;;;;;;35.31;36.34;99829.78;5038727;28;20205;-71
2022/07/24 10:06:00;;;;;;;9.90;6.20;;;;;;;35.35;35.34;99827.66;5067334;28;20210;-72
2022/07/24 10:08:27;;;;;;;13.77;6.30;;;;;;;35.38;35.64;99825.53;5067159;28;20293;-72
2022/07/24 10:10:56;;;;;;;16.42;6.70;;;;;;;35.53;36.51;99823.25;5067552;28;20198;-73
2022/07/24 10:13:24;;;;;;;9.13;6.05;;;;;;;35.49;35.65;99822.69;5067147;28;20226;-73
2022/07/24 10:16:13;;;;;;;12.18;6.53;;;;;;;35.54;35.76;99831.19;5067048;28;20194;-73
2022/07/24 10:18:47;;;;;;;11.57;6.18;;;;;;;35.33;35.07;99827.78;5066798;28;20202;-72
2022/07/24 10:21:19;;;;;;;10.43;5.88;;;;;;;35.48;35.08;99820.97;5066274;28;20206;-73
2022/07/24 10:24:11;;;;;;;15.40;6.22;;;;;;;35.20;34.61;99784.06;5066391;28;20237;-72
2022/07/24 10:26:41;;;;;;;8.73;6.25;;;;;;;35.55;34.04;99821.25;5066143;28;20199;-72
2022/07/24 10:29:11;;;;;;;9.85;6.38;;;;;;;35.79;33.05;99821.69;5066352;28;20197;-73
2022/07/24 10:31:39;;;;;;;10.25;6.05;;;;;;;35.63;32.16;99814.19;5066768;28;20687;-73
2022/07/24 10:34:13;;;;;;;9.88;5.90;;;;;;;35.80;32.83;99821.56;5067188;28;20261;-71
2022/07/24 10:36:50;;;;;;;9.55;6.57;;;;;;;35.64;34.04;99815.06;5066405;28;20206;-72
2022/07/24 10:39:26;;;;;;;14.65;6.68;;;;;;;35.93;34.23;99820.38;5011669;28;20210;-72
2022/07/24 10:42:04;;;;;;;10.38;6.40;;;;;;;35.80;34.75;99816.16;5063819;28;20775;-73
2022/07/24 10:44:30;;;;;;;21.92;9.10;;;;;;;36.02;34.55;99814.13;5067343;28;20202;-73
2022/07/24 10:47:00;;;;;;;13.23;6.70;;;;;;;36.11;35.06;99818.69;5066955;28;20604;-74
2022/07/24 10:49:44;;;;;;;13.75;7.50;;;;;;;36.07;35.32;99795.63;5066791;28;20217;-73
2022/07/24 10:52:23;;;;;;;19.23;6.65;;;;;;;36.36;34.79;99807.22;5066282;28;20217;-73
2022/07/24 10:55:31;;;;;;;11.98;6.70;;;;;;;36.38;34.73;99807.09;5066134;28;20257;-73
2022/07/24 10:58:00;;;;;;;12.05;6.50;;;;;;;36.43;34.51;99797.53;4984023;28;20224;-73
2022/07/24 11:00:32;;;;;;;11.45;6.20;;;;;;;36.31;34.23;99798.72;4981374;28;20300;-74
2022/07/24 11:03:01;;;;;;;13.27;6.28;;;;;;;36.41;33.36;99788.75;4983992;28;20205;-75
2022/07/24 11:05:31;;;;;;;16.20;6.03;;;;;;;36.54;33.86;99775.72;4976023;28;20208;-74
2022/07/24 11:08:34;;;;;;;13.60;5.63;;;;;;;36.69;31.88;99798.59;4971830;28;20731;-75
2022/07/24 11:11:09;;;;;;;12.68;5.93;;;;;;;36.39;32.26;99777.22;4975360;28;20200;-73
2022/07/24 11:13:49;;;;;;;11.15;5.80;;;;;;;36.35;32.67;99770.44;4973203;28;20227;-74
2022/07/24 11:16:25;;;;;;;10.15;6.05;;;;;;;36.65;33.10;99786.38;4973996;28;20224;-74
2022/07/24 11:19:29;;;;;;;10.93;5.90;;;;;;;36.52;31.52;99788.53;4977233;28;20200;-75
2022/07/24 11:22:08;;;;;;;15.27;5.72;;;;;;;36.68;31.82;99780.66;4973484;28;20624;-75
2022/07/24 11:24:35;;;;;;;12.80;5.65;;;;;;;36.80;32.12;99780.47;4975140;28;20244;-74
2022/07/24 11:27:08;;;;;;;11.57;5.65;;;;;;;36.76;32.19;99772.66;4972741;28;20626;-75
2022/07/24 11:29:37;;;;;;;7.55;5.20;;;;;;;36.73;31.61;99767.56;4977279;28;20193;-75
2022/07/24 11:32:07;;;;;;;16.67;5.82;;;;;;;36.81;32.16;99758.69;4968353;28;20757;-73
2022/07/24 11:34:35;;;;;;;10.65;6.10;;;;;;;36.76;31.46;99745.63;4992065;28;20232;-74
2022/07/24 11:37:02;;;;;;;6.68;5.22;;;;;;;36.78;31.27;99741.94;5047961;28;20195;-75
2022/07/24 11:39:30;;;;;;;13.20;5.88;;;;;;;36.75;31.45;99753.88;5066056;28;20587;-76
2022/07/24 11:41:59;;;;;;;6.22;5.07;;;;;;;37.07;31.86;99754.25;5065589;28;20217;-75